sensor_id;sensor_type;location;lat;lon;timestamp;P1;durP1;ratioP1;P2;durP2;ratioP2
34926;SDS011;21132;48.308;14.274;2023-04-25T00:02:01;4.45;;;2.95;;
34926;SDS011;21132;48.308;14.274;2023-04-25T00:04:29;2.83;;;2.30;;
34926;SDS011;21132;48.308;14.274;2023-04-25T00:06:55;4.57;;;2.22;;
34926;SDS011;21132;48.308;14.274;2023-04-25T00:09:21;4.32;;;2.00;;
34926;SDS011;21132;48.308;14.274;2023-04-25T00:11:47;2.38;;;1.92;;
34926;SDS011;21132;48.308;14.274;2023-04-25T00:14:13;4.20;;;2.50;;
34926;SDS011;21132;48.308;14.274;2023-04-25T00:16:40;3.50;;;2.40;;
34926;SDS011;21132;48.308;14.274;2023-04-25T00:19:08;4.07;;;2.35;;
34926;SDS011;21132;48.308;14.274;2023-04-25T00:21:34;4.95;;;2.58;;
34926;SDS011;21132;48.308;14.274;2023-04-25T00:24:02;3.22;;;2.20;;
34926;SDS011;21132;48.308;14.274;2023-04-25T00:26:28;3.05;;;1.95;;
34926;SDS011;21132;48.308;14.274;2023-04-25T00:28:54;4.38;;;2.15;;
34926;SDS011;21132;48.308;14.274;2023-04-25T00:31:20;3.15;;;2.33;;
34926;SDS011;21132;48.308;14.274;2023-04-25T00:33:46;2.45;;;2.25;;
34926;SDS011;21132;48.308;14.274;2023-04-25T00:36:12;2.70;;;2.22;;
34926;SDS011;21132;48.308;14.274;2023-04-25T00:38:38;10.65;;;2.78;;
34926;SDS011;21132;48.308;14.274;2023-04-25T00:41:08;5.78;;;2.50;;
34926;SDS011;21132;48.308;14.274;2023-04-25T00:43:36;3.38;;;2.17;;
34926;SDS011;21132;48.308;14.274;2023-04-25T00:46:02;3.53;;;2.20;;
34926;SDS011;21132;48.308;14.274;2023-04-25T00:48:28;4.00;;;2.30;;
34926;SDS011;21132;48.308;14.274;2023-04-25T00:50:55;3.92;;;2.70;;
34926;SDS011;21132;48.308;14.274;2023-04-25T00:53:24;2.20;;;1.80;;
34926;SDS011;21132;48.308;14.274;2023-04-25T00:55:52;2.40;;;2.15;;
34926;SDS011;21132;48.308;14.274;2023-04-25T00:58:18;2.42;;;2.00;;
34926;SDS011;21132;48.308;14.274;2023-04-25T01:00:45;2.30;;;2.05;;
34926;SDS011;21132;48.308;14.274;2023-04-25T01:03:13;2.92;;;2.08;;
34926;SDS011;21132;48.308;14.274;2023-04-25T01:05:41;2.67;;;2.10;;
34926;SDS011;21132;48.308;14.274;2023-04-25T01:08:08;2.13;;;1.92;;
34926;SDS011;21132;48.308;14.274;2023-04-25T01:10:34;3.33;;;1.88;;
34926;SDS011;21132;48.308;14.274;2023-04-25T01:13:01;3.20;;;2.55;;
34926;SDS011;21132;48.308;14.274;2023-04-25T01:15:26;3.47;;;2.28;;
34926;SDS011;21132;48.308;14.274;2023-04-25T01:17:52;2.65;;;2.15;;
34926;SDS011;21132;48.308;14.274;2023-04-25T01:20:23;5.80;;;2.42;;
34926;SDS011;21132;48.308;14.274;2023-04-25T01:22:52;4.15;;;2.17;;
34926;SDS011;21132;48.308;14.274;2023-04-25T01:25:20;3.80;;;2.20;;
34926;SDS011;21132;48.308;14.274;2023-04-25T01:27:46;5.55;;;2.85;;
34926;SDS011;21132;48.308;14.274;2023-04-25T01:30:12;2.33;;;1.95;;
34926;SDS011;21132;48.308;14.274;2023-04-25T01:32:38;3.35;;;2.50;;
34926;SDS011;21132;48.308;14.274;2023-04-25T01:35:06;5.57;;;2.15;;
34926;SDS011;21132;48.308;14.274;2023-04-25T01:37:39;4.05;;;2.03;;
34926;SDS011;21132;48.308;14.274;2023-04-25T01:40:06;3.80;;;2.30;;
34926;SDS011;21132;48.308;14.274;2023-04-25T01:42:33;2.80;;;2.10;;
34926;SDS011;21132;48.308;14.274;2023-04-25T01:45:01;3.60;;;2.22;;
34926;SDS011;21132;48.308;14.274;2023-04-25T01:47:27;2.78;;;2.13;;
34926;SDS011;21132;48.308;14.274;2023-04-25T01:49:53;3.40;;;1.98;;
34926;SDS011;21132;48.308;14.274;2023-04-25T01:52:18;2.22;;;1.80;;
34926;SDS011;21132;48.308;14.274;2023-04-25T01:54:44;3.80;;;2.13;;
34926;SDS011;21132;48.308;14.274;2023-04-25T01:57:11;3.38;;;1.70;;
34926;SDS011;21132;48.308;14.274;2023-04-25T01:59:37;2.35;;;1.65;;
34926;SDS011;21132;48.308;14.274;2023-04-25T02:02:03;4.00;;;2.28;;
34926;SDS011;21132;48.308;14.274;2023-04-25T02:04:30;2.88;;;1.88;;
34926;SDS011;21132;48.308;14.274;2023-04-25T02:06:56;3.78;;;2.05;;
34926;SDS011;21132;48.308;14.274;2023-04-25T02:09:21;3.38;;;2.05;;
34926;SDS011;21132;48.308;14.274;2023-04-25T02:11:47;3.10;;;2.00;;
34926;SDS011;21132;48.308;14.274;2023-04-25T02:14:13;4.57;;;2.28;;
34926;SDS011;21132;48.308;14.274;2023-04-25T02:16:39;3.00;;;1.90;;
34926;SDS011;21132;48.308;14.274;2023-04-25T02:19:05;3.65;;;2.13;;
34926;SDS011;21132;48.308;14.274;2023-04-25T02:21:31;2.88;;;1.98;;
34926;SDS011;21132;48.308;14.274;2023-04-25T02:23:57;2.00;;;1.80;;
34926;SDS011;21132;48.308;14.274;2023-04-25T02:26:23;1.77;;;1.50;;
34926;SDS011;21132;48.308;14.274;2023-04-25T02:28:49;2.03;;;1.70;;
34926;SDS011;21132;48.308;14.274;2023-04-25T02:31:16;2.42;;;1.80;;
34926;SDS011;21132;48.308;14.274;2023-04-25T02:33:42;3.00;;;2.17;;
34926;SDS011;21132;48.308;14.274;2023-04-25T02:36:08;2.05;;;1.85;;
34926;SDS011;21132;48.308;14.274;2023-04-25T02:38:34;3.53;;;2.08;;
34926;SDS011;21132;48.308;14.274;2023-04-25T02:40:59;3.22;;;2.00;;
34926;SDS011;21132;48.308;14.274;2023-04-25T02:43:25;4.10;;;2.30;;
34926;SDS011;21132;48.308;14.274;2023-04-25T02:45:51;4.60;;;2.28;;
34926;SDS011;21132;48.308;14.274;2023-04-25T02:48:17;1.88;;;1.58;;
34926;SDS011;21132;48.308;14.274;2023-04-25T02:50:43;4.93;;;2.40;;
34926;SDS011;21132;48.308;14.274;2023-04-25T02:53:09;3.03;;;2.45;;
34926;SDS011;21132;48.308;14.274;2023-04-25T02:55:34;3.70;;;1.90;;
34926;SDS011;21132;48.308;14.274;2023-04-25T02:58:00;2.22;;;1.70;;
34926;SDS011;21132;48.308;14.274;2023-04-25T03:00:26;2.83;;;2.13;;
34926;SDS011;21132;48.308;14.274;2023-04-25T03:02:52;2.70;;;2.13;;
34926;SDS011;21132;48.308;14.274;2023-04-25T03:05:18;3.65;;;2.10;;
34926;SDS011;21132;48.308;14.274;2023-04-25T03:07:44;3.00;;;1.90;;
34926;SDS011;21132;48.308;14.274;2023-04-25T03:10:11;2.60;;;2.22;;
34926;SDS011;21132;48.308;14.274;2023-04-25T03:12:37;1.70;;;1.60;;
34926;SDS011;21132;48.308;14.274;2023-04-25T03:15:03;3.88;;;2.40;;
34926;SDS011;21132;48.308;14.274;2023-04-25T03:17:29;2.83;;;2.03;;
34926;SDS011;21132;48.308;14.274;2023-04-25T03:19:55;3.17;;;2.45;;
34926;SDS011;21132;48.308;14.274;2023-04-25T03:22:21;2.30;;;1.80;;
34926;SDS011;21132;48.308;14.274;2023-04-25T03:24:47;4.10;;;1.95;;
34926;SDS011;21132;48.308;14.274;2023-04-25T03:27:13;5.97;;;2.10;;
34926;SDS011;21132;48.308;14.274;2023-04-25T03:29:38;3.83;;;2.17;;
34926;SDS011;21132;48.308;14.274;2023-04-25T03:32:05;2.17;;;1.70;;
34926;SDS011;21132;48.308;14.274;2023-04-25T03:34:31;7.97;;;1.90;;
34926;SDS011;21132;48.308;14.274;2023-04-25T03:36:57;2.40;;;1.90;;
34926;SDS011;21132;48.308;14.274;2023-04-25T03:39:22;2.08;;;1.88;;
34926;SDS011;21132;48.308;14.274;2023-04-25T03:41:48;2.75;;;2.10;;
34926;SDS011;21132;48.308;14.274;2023-04-25T03:44:14;2.85;;;1.85;;
34926;SDS011;21132;48.308;14.274;2023-04-25T03:46:40;2.72;;;2.00;;
34926;SDS011;21132;48.308;14.274;2023-04-25T03:49:06;3.65;;;2.40;;
34926;SDS011;21132;48.308;14.274;2023-04-25T03:51:31;4.32;;;2.08;;
34926;SDS011;21132;48.308;14.274;2023-04-25T03:53:57;2.58;;;2.10;;
34926;SDS011;21132;48.308;14.274;2023-04-25T03:56:23;5.13;;;1.88;;
34926;SDS011;21132;48.308;14.274;2023-04-25T03:58:49;8.68;;;2.30;;
34926;SDS011;21132;48.308;14.274;2023-04-25T04:01:15;6.93;;;2.50;;
34926;SDS011;21132;48.308;14.274;2023-04-25T04:03:40;5.18;;;2.58;;
34926;SDS011;21132;48.308;14.274;2023-04-25T04:06:07;3.42;;;2.30;;
34926;SDS011;21132;48.308;14.274;2023-04-25T04:08:33;7.15;;;2.40;;
34926;SDS011;21132;48.308;14.274;2023-04-25T04:10:59;6.75;;;2.85;;
34926;SDS011;21132;48.308;14.274;2023-04-25T04:13:26;3.80;;;2.42;;
34926;SDS011;21132;48.308;14.274;2023-04-25T04:15:52;4.20;;;2.58;;
34926;SDS011;21132;48.308;14.274;2023-04-25T04:18:18;3.47;;;2.28;;
34926;SDS011;21132;48.308;14.274;2023-04-25T04:20:44;3.70;;;2.53;;
34926;SDS011;21132;48.308;14.274;2023-04-25T04:23:10;4.47;;;2.67;;
34926;SDS011;21132;48.308;14.274;2023-04-25T04:25:36;4.03;;;2.00;;
34926;SDS011;21132;48.308;14.274;2023-04-25T04:28:02;3.78;;;2.80;;
34926;SDS011;21132;48.308;14.274;2023-04-25T04:30:28;4.40;;;2.53;;
34926;SDS011;21132;48.308;14.274;2023-04-25T04:32:54;3.22;;;1.95;;
34926;SDS011;21132;48.308;14.274;2023-04-25T04:35:27;3.13;;;2.17;;
34926;SDS011;21132;48.308;14.274;2023-04-25T04:37:53;4.35;;;2.45;;
34926;SDS011;21132;48.308;14.274;2023-04-25T04:40:19;4.82;;;2.42;;
34926;SDS011;21132;48.308;14.274;2023-04-25T04:42:49;3.63;;;2.50;;
34926;SDS011;21132;48.308;14.274;2023-04-25T04:45:15;5.47;;;2.40;;
34926;SDS011;21132;48.308;14.274;2023-04-25T04:47:41;3.90;;;2.55;;
34926;SDS011;21132;48.308;14.274;2023-04-25T04:50:07;5.22;;;2.35;;
34926;SDS011;21132;48.308;14.274;2023-04-25T04:52:37;3.17;;;2.45;;
34926;SDS011;21132;48.308;14.274;2023-04-25T04:55:04;7.38;;;2.70;;
34926;SDS011;21132;48.308;14.274;2023-04-25T04:57:30;3.25;;;2.55;;
34926;SDS011;21132;48.308;14.274;2023-04-25T04:59:58;3.67;;;2.20;;
34926;SDS011;21132;48.308;14.274;2023-04-25T05:02:24;3.33;;;2.30;;
34926;SDS011;21132;48.308;14.274;2023-04-25T05:04:50;3.20;;;2.60;;
34926;SDS011;21132;48.308;14.274;2023-04-25T05:07:17;2.90;;;2.50;;
34926;SDS011;21132;48.308;14.274;2023-04-25T05:09:43;2.58;;;2.13;;
34926;SDS011;21132;48.308;14.274;2023-04-25T05:12:09;9.82;;;2.40;;
34926;SDS011;21132;48.308;14.274;2023-04-25T05:14:35;3.63;;;2.08;;
34926;SDS011;21132;48.308;14.274;2023-04-25T05:17:00;6.15;;;2.72;;
34926;SDS011;21132;48.308;14.274;2023-04-25T05:19:28;4.68;;;2.15;;
34926;SDS011;21132;48.308;14.274;2023-04-25T05:21:54;4.38;;;2.53;;
34926;SDS011;21132;48.308;14.274;2023-04-25T05:24:20;5.53;;;2.55;;
34926;SDS011;21132;48.308;14.274;2023-04-25T05:26:46;5.22;;;2.45;;
34926;SDS011;21132;48.308;14.274;2023-04-25T05:29:11;6.45;;;2.35;;
34926;SDS011;21132;48.308;14.274;2023-04-25T05:31:37;3.80;;;2.53;;
34926;SDS011;21132;48.308;14.274;2023-04-25T05:34:03;3.78;;;2.10;;
34926;SDS011;21132;48.308;14.274;2023-04-25T05:36:29;3.42;;;2.05;;
34926;SDS011;21132;48.308;14.274;2023-04-25T05:38:55;4.63;;;2.40;;
34926;SDS011;21132;48.308;14.274;2023-04-25T05:41:21;5.13;;;2.35;;
34926;SDS011;21132;48.308;14.274;2023-04-25T05:43:47;4.85;;;2.50;;
34926;SDS011;21132;48.308;14.274;2023-04-25T05:46:14;3.05;;;2.00;;
34926;SDS011;21132;48.308;14.274;2023-04-25T05:48:42;3.17;;;2.15;;
34926;SDS011;21132;48.308;14.274;2023-04-25T05:51:08;3.83;;;2.00;;
34926;SDS011;21132;48.308;14.274;2023-04-25T05:53:33;2.85;;;1.80;;
34926;SDS011;21132;48.308;14.274;2023-04-25T05:55:59;6.07;;;2.03;;
34926;SDS011;21132;48.308;14.274;2023-04-25T05:58:25;8.93;;;2.10;;
34926;SDS011;21132;48.308;14.274;2023-04-25T06:00:51;4.45;;;2.00;;
34926;SDS011;21132;48.308;14.274;2023-04-25T06:03:17;9.15;;;2.75;;
34926;SDS011;21132;48.308;14.274;2023-04-25T06:05:43;6.43;;;2.63;;
34926;SDS011;21132;48.308;14.274;2023-04-25T06:08:09;5.65;;;2.00;;
34926;SDS011;21132;48.308;14.274;2023-04-25T06:10:35;6.25;;;2.40;;
34926;SDS011;21132;48.308;14.274;2023-04-25T06:13:02;4.47;;;1.92;;
34926;SDS011;21132;48.308;14.274;2023-04-25T06:15:28;2.80;;;2.13;;
34926;SDS011;21132;48.308;14.274;2023-04-25T06:17:55;3.17;;;2.10;;
34926;SDS011;21132;48.308;14.274;2023-04-25T06:20:20;4.80;;;2.38;;
34926;SDS011;21132;48.308;14.274;2023-04-25T06:22:49;3.42;;;2.17;;
34926;SDS011;21132;48.308;14.274;2023-04-25T06:25:16;5.97;;;2.30;;
34926;SDS011;21132;48.308;14.274;2023-04-25T06:27:42;3.63;;;2.20;;
34926;SDS011;21132;48.308;14.274;2023-04-25T06:30:08;2.08;;;1.67;;
34926;SDS011;21132;48.308;14.274;2023-04-25T06:32:36;4.68;;;2.28;;
34926;SDS011;21132;48.308;14.274;2023-04-25T06:35:02;6.13;;;2.25;;
34926;SDS011;21132;48.308;14.274;2023-04-25T06:37:28;9.68;;;2.17;;
34926;SDS011;21132;48.308;14.274;2023-04-25T06:39:54;3.15;;;2.20;;
34926;SDS011;21132;48.308;14.274;2023-04-25T06:42:20;3.63;;;1.92;;
34926;SDS011;21132;48.308;14.274;2023-04-25T06:44:45;3.05;;;1.92;;
34926;SDS011;21132;48.308;14.274;2023-04-25T06:47:11;10.25;;;2.42;;
34926;SDS011;21132;48.308;14.274;2023-04-25T06:49:37;5.90;;;2.10;;
34926;SDS011;21132;48.308;14.274;2023-04-25T06:52:03;3.40;;;2.10;;
34926;SDS011;21132;48.308;14.274;2023-04-25T06:54:28;5.68;;;2.38;;
34926;SDS011;21132;48.308;14.274;2023-04-25T06:56:55;4.22;;;2.40;;
34926;SDS011;21132;48.308;14.274;2023-04-25T06:59:21;4.47;;;2.10;;
34926;SDS011;21132;48.308;14.274;2023-04-25T07:01:47;6.45;;;2.40;;
34926;SDS011;21132;48.308;14.274;2023-04-25T07:04:12;10.60;;;2.42;;
34926;SDS011;21132;48.308;14.274;2023-04-25T07:06:38;3.80;;;2.17;;
34926;SDS011;21132;48.308;14.274;2023-04-25T07:09:10;9.18;;;2.00;;
34926;SDS011;21132;48.308;14.274;2023-04-25T07:11:36;7.28;;;2.30;;
34926;SDS011;21132;48.308;14.274;2023-04-25T07:14:02;3.95;;;2.72;;
34926;SDS011;21132;48.308;14.274;2023-04-25T07:16:28;7.28;;;2.60;;
34926;SDS011;21132;48.308;14.274;2023-04-25T07:18:54;4.90;;;2.35;;
34926;SDS011;21132;48.308;14.274;2023-04-25T07:21:20;6.25;;;2.67;;
34926;SDS011;21132;48.308;14.274;2023-04-25T07:23:46;5.65;;;2.60;;
34926;SDS011;21132;48.308;14.274;2023-04-25T07:26:12;5.57;;;2.85;;
34926;SDS011;21132;48.308;14.274;2023-04-25T07:28:38;8.32;;;2.80;;
34926;SDS011;21132;48.308;14.274;2023-04-25T07:31:04;11.48;;;2.35;;
34926;SDS011;21132;48.308;14.274;2023-04-25T07:33:30;4.75;;;3.28;;
34926;SDS011;21132;48.308;14.274;2023-04-25T07:35:56;6.95;;;3.60;;
34926;SDS011;21132;48.308;14.274;2023-04-25T07:38:22;3.50;;;2.65;;
34926;SDS011;21132;48.308;14.274;2023-04-25T07:40:48;3.58;;;2.40;;
34926;SDS011;21132;48.308;14.274;2023-04-25T07:43:14;3.50;;;2.33;;
34926;SDS011;21132;48.308;14.274;2023-04-25T07:45:42;4.72;;;3.00;;
34926;SDS011;21132;48.308;14.274;2023-04-25T07:48:08;5.05;;;3.10;;
34926;SDS011;21132;48.308;14.274;2023-04-25T07:50:35;4.68;;;2.53;;
34926;SDS011;21132;48.308;14.274;2023-04-25T07:53:01;14.25;;;3.15;;
34926;SDS011;21132;48.308;14.274;2023-04-25T07:55:27;3.20;;;2.20;;
34926;SDS011;21132;48.308;14.274;2023-04-25T07:57:53;6.00;;;2.60;;
34926;SDS011;21132;48.308;14.274;2023-04-25T08:00:18;3.47;;;2.28;;
34926;SDS011;21132;48.308;14.274;2023-04-25T08:02:44;5.00;;;2.80;;
34926;SDS011;21132;48.308;14.274;2023-04-25T08:05:10;4.18;;;2.55;;
34926;SDS011;21132;48.308;14.274;2023-04-25T08:07:40;6.28;;;2.85;;
34926;SDS011;21132;48.308;14.274;2023-04-25T08:10:06;4.22;;;2.47;;
34926;SDS011;21132;48.308;14.274;2023-04-25T08:12:32;5.00;;;2.70;;
34926;SDS011;21132;48.308;14.274;2023-04-25T08:14:58;5.13;;;3.00;;
34926;SDS011;21132;48.308;14.274;2023-04-25T08:17:24;4.00;;;2.63;;
34926;SDS011;21132;48.308;14.274;2023-04-25T08:19:50;3.90;;;2.50;;
34926;SDS011;21132;48.308;14.274;2023-04-25T08:22:16;4.53;;;2.63;;
34926;SDS011;21132;48.308;14.274;2023-04-25T08:24:42;11.23;;;3.22;;
34926;SDS011;21132;48.308;14.274;2023-04-25T08:27:08;4.28;;;2.38;;
34926;SDS011;21132;48.308;14.274;2023-04-25T08:29:35;5.40;;;2.42;;
34926;SDS011;21132;48.308;14.274;2023-04-25T08:32:00;9.32;;;2.58;;
34926;SDS011;21132;48.308;14.274;2023-04-25T08:34:26;3.47;;;2.35;;
34926;SDS011;21132;48.308;14.274;2023-04-25T08:36:52;2.90;;;2.25;;
34926;SDS011;21132;48.308;14.274;2023-04-25T08:39:18;7.30;;;2.30;;
34926;SDS011;21132;48.308;14.274;2023-04-25T08:41:44;7.13;;;2.40;;
34926;SDS011;21132;48.308;14.274;2023-04-25T08:44:10;3.00;;;2.05;;
34926;SDS011;21132;48.308;14.274;2023-04-25T08:46:39;3.80;;;1.95;;
34926;SDS011;21132;48.308;14.274;2023-04-25T08:49:06;3.92;;;1.95;;
34926;SDS011;21132;48.308;14.274;2023-04-25T08:51:32;4.05;;;2.17;;
34926;SDS011;21132;48.308;14.274;2023-04-25T08:54:09;5.35;;;2.65;;
34926;SDS011;21132;48.308;14.274;2023-04-25T08:56:40;5.80;;;2.40;;
34926;SDS011;21132;48.308;14.274;2023-04-25T08:59:11;5.70;;;2.30;;
34926;SDS011;21132;48.308;14.274;2023-04-25T09:01:37;3.97;;;2.08;;
34926;SDS011;21132;48.308;14.274;2023-04-25T09:04:03;4.85;;;2.20;;
34926;SDS011;21132;48.308;14.274;2023-04-25T09:06:30;5.10;;;2.60;;
34926;SDS011;21132;48.308;14.274;2023-04-25T09:09:03;5.05;;;2.17;;
34926;SDS011;21132;48.308;14.274;2023-04-25T09:11:30;6.13;;;2.67;;
34926;SDS011;21132;48.308;14.274;2023-04-25T09:14:10;5.20;;;2.20;;
34926;SDS011;21132;48.308;14.274;2023-04-25T09:19:28;11.35;;;2.17;;
34926;SDS011;21132;48.308;14.274;2023-04-25T09:21:55;7.25;;;2.53;;
34926;SDS011;21132;48.308;14.274;2023-04-25T09:24:37;4.40;;;2.20;;
34926;SDS011;21132;48.308;14.274;2023-04-25T09:27:12;2.58;;;1.70;;
34926;SDS011;21132;48.308;14.274;2023-04-25T09:29:43;5.03;;;1.88;;
34926;SDS011;21132;48.308;14.274;2023-04-25T09:32:19;3.88;;;2.10;;
34926;SDS011;21132;48.308;14.274;2023-04-25T09:34:50;3.83;;;2.20;;
34926;SDS011;21132;48.308;14.274;2023-04-25T09:39:48;3.28;;;2.05;;
34926;SDS011;21132;48.308;14.274;2023-04-25T09:42:15;3.42;;;1.83;;
34926;SDS011;21132;48.308;14.274;2023-04-25T09:44:42;5.28;;;2.03;;
34926;SDS011;21132;48.308;14.274;2023-04-25T09:47:10;5.65;;;2.17;;
34926;SDS011;21132;48.308;14.274;2023-04-25T09:49:41;4.00;;;2.03;;
34926;SDS011;21132;48.308;14.274;2023-04-25T09:52:08;3.38;;;1.98;;
34926;SDS011;21132;48.308;14.274;2023-04-25T09:54:37;6.13;;;2.30;;
34926;SDS011;21132;48.308;14.274;2023-04-25T09:57:14;2.25;;;1.80;;
34926;SDS011;21132;48.308;14.274;2023-04-25T10:02:18;4.78;;;2.10;;
34926;SDS011;21132;48.308;14.274;2023-04-25T10:04:50;4.07;;;1.67;;
34926;SDS011;21132;48.308;14.274;2023-04-25T10:07:19;4.10;;;1.95;;
34926;SDS011;21132;48.308;14.274;2023-04-25T10:09:48;7.78;;;2.33;;
34926;SDS011;21132;48.308;14.274;2023-04-25T10:12:15;3.33;;;1.88;;
34926;SDS011;21132;48.308;14.274;2023-04-25T10:14:42;3.55;;;1.85;;
34926;SDS011;21132;48.308;14.274;2023-04-25T10:17:10;3.10;;;2.00;;
34926;SDS011;21132;48.308;14.274;2023-04-25T10:19:38;3.13;;;1.90;;
34926;SDS011;21132;48.308;14.274;2023-04-25T10:22:08;3.33;;;1.83;;
34926;SDS011;21132;48.308;14.274;2023-04-25T10:24:41;2.80;;;1.20;;
34926;SDS011;21132;48.308;14.274;2023-04-25T10:27:09;2.95;;;1.10;;
34926;SDS011;21132;48.308;14.274;2023-04-25T10:29:36;1.35;;;0.60;;
34926;SDS011;21132;48.308;14.274;2023-04-25T10:32:01;1.35;;;0.70;;
34926;SDS011;21132;48.308;14.274;2023-04-25T10:34:43;0.63;;;0.43;;
34926;SDS011;21132;48.308;14.274;2023-04-25T10:39:38;1.52;;;0.80;;
34926;SDS011;21132;48.308;14.274;2023-04-25T10:42:06;1.98;;;0.90;;
34926;SDS011;21132;48.308;14.274;2023-04-25T10:44:33;3.28;;;1.02;;
34926;SDS011;21132;48.308;14.274;2023-04-25T10:47:00;0.95;;;0.85;;
34926;SDS011;21132;48.308;14.274;2023-04-25T10:49:33;1.55;;;1.10;;
34926;SDS011;21132;48.308;14.274;2023-04-25T10:52:17;4.07;;;1.20;;
34926;SDS011;21132;48.308;14.274;2023-04-25T10:54:54;1.77;;;1.15;;
34926;SDS011;21132;48.308;14.274;2023-04-25T10:57:32;1.45;;;1.20;;
34926;SDS011;21132;48.308;14.274;2023-04-25T11:00:18;3.42;;;1.27;;
34926;SDS011;21132;48.308;14.274;2023-04-25T11:02:53;2.10;;;1.70;;
34926;SDS011;21132;48.308;14.274;2023-04-25T11:07:57;1.73;;;1.05;;
34926;SDS011;21132;48.308;14.274;2023-04-25T11:10:28;2.65;;;1.20;;
34926;SDS011;21132;48.308;14.274;2023-04-25T11:12:58;1.95;;;1.33;;
34926;SDS011;21132;48.308;14.274;2023-04-25T11:15:25;2.20;;;1.30;;
34926;SDS011;21132;48.308;14.274;2023-04-25T11:17:51;2.15;;;1.25;;
34926;SDS011;21132;48.308;14.274;2023-04-25T11:20:17;2.50;;;1.10;;
34926;SDS011;21132;48.308;14.274;2023-04-25T11:22:44;2.83;;;1.02;;
34926;SDS011;21132;48.308;14.274;2023-04-25T11:25:12;1.13;;;0.73;;
34926;SDS011;21132;48.308;14.274;2023-04-25T11:28:00;2.80;;;0.88;;
34926;SDS011;21132;48.308;14.274;2023-04-25T11:30:28;6.32;;;1.10;;
34926;SDS011;21132;48.308;14.274;2023-04-25T11:32:55;3.08;;;1.00;;
34926;SDS011;21132;48.308;14.274;2023-04-25T11:35:21;2.00;;;1.00;;
34926;SDS011;21132;48.308;14.274;2023-04-25T11:37:48;1.50;;;0.85;;
34926;SDS011;21132;48.308;14.274;2023-04-25T11:40:14;1.30;;;0.80;;
34926;SDS011;21132;48.308;14.274;2023-04-25T11:42:44;2.90;;;0.80;;
34926;SDS011;21132;48.308;14.274;2023-04-25T11:45:11;2.88;;;0.98;;
34926;SDS011;21132;48.308;14.274;2023-04-25T11:47:37;1.25;;;0.90;;
34926;SDS011;21132;48.308;14.274;2023-04-25T11:50:04;3.15;;;1.00;;
34926;SDS011;21132;48.308;14.274;2023-04-25T11:52:41;2.38;;;0.80;;
34926;SDS011;21132;48.308;14.274;2023-04-25T11:55:12;1.25;;;0.80;;
34926;SDS011;21132;48.308;14.274;2023-04-25T11:57:39;1.20;;;0.65;;
34926;SDS011;21132;48.308;14.274;2023-04-25T12:00:19;2.92;;;1.00;;
34926;SDS011;21132;48.308;14.274;2023-04-25T12:02:47;1.85;;;0.70;;
34926;SDS011;21132;48.308;14.274;2023-04-25T12:05:16;1.67;;;1.02;;
34926;SDS011;21132;48.308;14.274;2023-04-25T12:07:42;2.28;;;0.95;;
34926;SDS011;21132;48.308;14.274;2023-04-25T12:10:11;6.30;;;1.10;;
34926;SDS011;21132;48.308;14.274;2023-04-25T12:12:41;2.60;;;1.00;;
34926;SDS011;21132;48.308;14.274;2023-04-25T12:15:08;1.55;;;0.82;;
34926;SDS011;21132;48.308;14.274;2023-04-25T12:17:40;2.08;;;1.17;;
34926;SDS011;21132;48.308;14.274;2023-04-25T12:20:10;3.72;;;1.15;;
34926;SDS011;21132;48.308;14.274;2023-04-25T12:22:40;5.10;;;1.70;;
34926;SDS011;21132;48.308;14.274;2023-04-25T12:25:12;3.53;;;1.38;;
34926;SDS011;21132;48.308;14.274;2023-04-25T12:27:39;1.85;;;1.35;;
34926;SDS011;21132;48.308;14.274;2023-04-25T12:30:09;3.70;;;1.15;;
34926;SDS011;21132;48.308;14.274;2023-04-25T12:32:36;2.55;;;1.42;;
34926;SDS011;21132;48.308;14.274;2023-04-25T12:35:03;3.75;;;1.50;;
34926;SDS011;21132;48.308;14.274;2023-04-25T12:37:30;2.67;;;1.42;;
34926;SDS011;21132;48.308;14.274;2023-04-25T12:39:56;6.93;;;1.20;;
34926;SDS011;21132;48.308;14.274;2023-04-25T12:42:22;1.05;;;0.90;;
34926;SDS011;21132;48.308;14.274;2023-04-25T12:44:47;3.03;;;0.82;;
34926;SDS011;21132;48.308;14.274;2023-04-25T12:47:13;2.85;;;0.80;;
34926;SDS011;21132;48.308;14.274;2023-04-25T12:49:39;3.95;;;1.17;;
34926;SDS011;21132;48.308;14.274;2023-04-25T12:52:05;2.47;;;1.40;;
34926;SDS011;21132;48.308;14.274;2023-04-25T12:54:30;3.25;;;1.80;;
34926;SDS011;21132;48.308;14.274;2023-04-25T12:56:56;3.83;;;2.30;;
34926;SDS011;21132;48.308;14.274;2023-04-25T12:59:22;4.82;;;2.60;;
34926;SDS011;21132;48.308;14.274;2023-04-25T13:01:48;2.67;;;2.42;;
34926;SDS011;21132;48.308;14.274;2023-04-25T13:04:14;2.40;;;2.08;;
34926;SDS011;21132;48.308;14.274;2023-04-25T13:06:40;2.60;;;1.92;;
34926;SDS011;21132;48.308;14.274;2023-04-25T13:09:06;2.20;;;2.00;;
34926;SDS011;21132;48.308;14.274;2023-04-25T13:11:32;2.13;;;2.03;;
34926;SDS011;21132;48.308;14.274;2023-04-25T13:13:58;2.22;;;2.00;;
34926;SDS011;21132;48.308;14.274;2023-04-25T13:16:23;1.60;;;1.50;;
34926;SDS011;21132;48.308;14.274;2023-04-25T13:18:49;3.47;;;1.70;;
34926;SDS011;21132;48.308;14.274;2023-04-25T13:21:15;2.63;;;1.38;;
34926;SDS011;21132;48.308;14.274;2023-04-25T13:23:41;6.25;;;1.95;;
34926;SDS011;21132;48.308;14.274;2023-04-25T13:26:08;1.50;;;1.40;;
34926;SDS011;21132;48.308;14.274;2023-04-25T13:28:33;1.38;;;1.25;;
34926;SDS011;21132;48.308;14.274;2023-04-25T13:30:59;1.65;;;1.10;;
34926;SDS011;21132;48.308;14.274;2023-04-25T13:33:25;3.15;;;1.40;;
34926;SDS011;21132;48.308;14.274;2023-04-25T13:35:51;2.90;;;1.30;;
34926;SDS011;21132;48.308;14.274;2023-04-25T13:38:22;1.45;;;1.35;;
34926;SDS011;21132;48.308;14.274;2023-04-25T13:40:49;3.00;;;1.60;;
34926;SDS011;21132;48.308;14.274;2023-04-25T13:43:18;7.75;;;1.45;;
34926;SDS011;21132;48.308;14.274;2023-04-25T13:45:48;2.60;;;1.27;;
34926;SDS011;21132;48.308;14.274;2023-04-25T13:48:14;2.22;;;1.10;;
34926;SDS011;21132;48.308;14.274;2023-04-25T13:50:40;1.63;;;1.20;;
34926;SDS011;21132;48.308;14.274;2023-04-25T13:53:06;3.70;;;1.63;;
34926;SDS011;21132;48.308;14.274;2023-04-25T13:55:33;6.07;;;1.60;;
34926;SDS011;21132;48.308;14.274;2023-04-25T13:58:00;3.58;;;1.60;;
34926;SDS011;21132;48.308;14.274;2023-04-25T14:00:32;1.73;;;1.23;;
34926;SDS011;21132;48.308;14.274;2023-04-25T14:02:58;3.38;;;1.30;;
34926;SDS011;21132;48.308;14.274;2023-04-25T14:05:24;2.25;;;1.00;;
34926;SDS011;21132;48.308;14.274;2023-04-25T14:07:50;2.45;;;1.08;;
34926;SDS011;21132;48.308;14.274;2023-04-25T14:10:16;2.08;;;1.20;;
34926;SDS011;21132;48.308;14.274;2023-04-25T14:12:41;4.95;;;1.17;;
34926;SDS011;21132;48.308;14.274;2023-04-25T14:15:07;5.45;;;1.30;;
34926;SDS011;21132;48.308;14.274;2023-04-25T14:17:33;4.70;;;1.17;;
34926;SDS011;21132;48.308;14.274;2023-04-25T14:19:59;2.35;;;1.00;;
34926;SDS011;21132;48.308;14.274;2023-04-25T14:22:24;2.85;;;1.50;;
34926;SDS011;21132;48.308;14.274;2023-04-25T14:24:51;1.80;;;1.05;;
34926;SDS011;21132;48.308;14.274;2023-04-25T14:27:17;1.27;;;0.80;;
34926;SDS011;21132;48.308;14.274;2023-04-25T14:29:42;1.33;;;0.82;;
34926;SDS011;21132;48.308;14.274;2023-04-25T14:32:08;12.50;;;1.58;;
34926;SDS011;21132;48.308;14.274;2023-04-25T14:34:34;1.20;;;0.77;;
34926;SDS011;21132;48.308;14.274;2023-04-25T14:36:59;4.07;;;0.88;;
34926;SDS011;21132;48.308;14.274;2023-04-25T14:39:25;1.77;;;0.90;;
34926;SDS011;21132;48.308;14.274;2023-04-25T14:41:51;1.50;;;0.73;;
34926;SDS011;21132;48.308;14.274;2023-04-25T14:44:17;1.02;;;0.90;;
34926;SDS011;21132;48.308;14.274;2023-04-25T14:46:42;4.80;;;0.98;;